createdAt,value
2022-11-13T00:00:05.174Z,85.95
2022-11-13T00:01:05.166Z,85.64
2022-11-13T00:02:05.254Z,84.23
2022-11-13T00:03:05.137Z,87.02
2022-11-13T00:04:05.136Z,86.10
2022-11-13T00:05:05.119Z,87.60
2022-11-13T00:06:05.099Z,86.61
2022-11-13T00:07:05.175Z,85.06
2022-11-13T00:08:05.085Z,85.78
2022-11-13T00:09:05.057Z,84.59
2022-11-13T00:10:05.056Z,83.65
2022-11-13T00:11:05.048Z,86.44
2022-11-13T00:12:05.037Z,84.69
2022-11-13T00:13:05.075Z,84.38
2022-11-13T00:14:05.007Z,84.79
2022-11-13T00:15:05.004Z,84.59
2022-11-13T00:16:04.998Z,83.76
2022-11-13T00:17:04.992Z,85.00
2022-11-13T00:18:04.976Z,85.72
2022-11-13T00:19:04.987Z,84.69
2022-11-13T00:20:04.986Z,84.28
2022-11-13T00:21:04.937Z,84.28
2022-11-13T00:22:04.918Z,83.86
2022-11-13T00:23:04.907Z,85.52
2022-11-13T00:24:04.896Z,82.76
2022-11-13T00:25:04.915Z,83.14
2022-11-13T00:26:04.877Z,84.73
2022-11-13T00:27:04.881Z,84.42
2022-11-13T00:28:04.860Z,85.10
2022-11-13T00:29:04.838Z,86.65
2022-11-13T00:30:04.870Z,84.48
2022-11-13T00:31:04.880Z,84.28
2022-11-13T00:32:04.810Z,85.83
2022-11-13T00:33:04.786Z,85.62
2022-11-13T00:34:25.829Z,84.31
2022-11-13T00:35:05.776Z,84.38
2022-11-13T00:36:04.759Z,85.66
2022-11-13T00:37:04.767Z,82.15
2022-11-13T00:38:04.743Z,82.73
2022-11-13T00:39:04.727Z,85.52
2022-11-13T00:40:04.712Z,84.28
2022-11-13T00:41:04.691Z,83.34
2022-11-13T00:42:04.699Z,85.00
2022-11-13T00:43:04.702Z,84.28
2022-11-13T00:44:04.669Z,85.21
2022-11-13T00:45:04.651Z,85.10
2022-11-13T00:46:04.650Z,85.21
2022-11-13T00:47:04.638Z,87.68
2022-11-13T00:48:04.661Z,88.10
2022-11-13T00:49:04.604Z,84.89
2022-11-13T00:50:04.600Z,84.79
2022-11-13T00:51:04.599Z,85.41
2022-11-13T00:52:04.567Z,86.28
2022-11-13T00:53:04.558Z,84.07
2022-11-13T00:54:04.581Z,86.65
2022-11-13T00:55:04.541Z,85.97
2022-11-13T00:56:04.533Z,84.31
2022-11-13T00:57:04.527Z,84.07
2022-11-13T00:58:04.509Z,83.59
2022-11-13T00:59:04.500Z,84.63
2022-11-13T01:00:04.510Z,84.89
2022-11-13T01:01:04.469Z,85.04
2022-11-13T01:02:04.510Z,83.45
2022-11-13T01:03:04.444Z,83.55
2022-11-13T01:04:04.433Z,84.17
2022-11-13T01:05:04.422Z,83.55
2022-11-13T01:06:04.464Z,84.38
2022-11-13T01:07:04.445Z,83.34
2022-11-13T01:08:04.411Z,84.89
2022-11-13T01:09:04.380Z,85.52
2022-11-13T01:10:04.361Z,83.31
2022-11-13T01:11:04.360Z,85.99
2022-11-13T01:12:04.385Z,85.27
2022-11-13T01:13:04.322Z,85.37
2022-11-13T01:14:04.332Z,85.17
2022-11-13T01:15:04.341Z,87.44
2022-11-13T01:16:04.323Z,87.02
2022-11-13T01:17:04.383Z,89.34
2022-11-13T01:18:04.323Z,86.24
2022-11-13T01:19:04.320Z,86.96
2022-11-13T01:20:04.330Z,87.79
2022-11-13T01:21:04.300Z,86.86
2022-11-13T01:22:04.301Z,88.41
2022-11-13T01:23:04.215Z,89.65
2022-11-13T01:24:04.326Z,87.58
2022-11-13T01:25:04.257Z,87.89
2022-11-13T01:26:04.309Z,87.99
2022-11-13T01:27:04.220Z,87.27
2022-11-13T01:28:04.175Z,89.69
2022-11-13T01:29:04.218Z,87.68
2022-11-13T01:30:04.204Z,87.89
2022-11-13T01:31:04.122Z,88.24
2022-11-13T01:32:04.209Z,87.41
2022-11-13T01:33:04.182Z,88.76
2022-11-13T01:34:04.198Z,86.90
2022-11-13T01:35:04.214Z,89.48
2022-11-13T01:36:04.176Z,90.31
2022-11-13T01:37:04.055Z,86.63
2022-11-13T01:38:04.034Z,88.07
2022-11-13T01:39:04.034Z,87.87
2022-11-13T01:40:04.024Z,87.46
2022-11-13T01:41:04.043Z,86.90
2022-11-13T01:42:04.006Z,88.55
2022-11-13T01:43:03.987Z,88.70
2022-11-13T01:44:03.974Z,88.49
2022-11-13T01:45:03.954Z,88.59
2022-11-13T01:46:03.954Z,91.90
2022-11-13T01:47:03.965Z,88.59
2022-11-13T01:48:03.926Z,91.28
2022-11-13T01:49:03.914Z,91.28
2022-11-13T01:50:03.910Z,89.77
2022-11-13T01:51:03.894Z,88.43
2022-11-13T01:52:03.882Z,88.74
2022-11-13T01:53:03.910Z,87.54
2022-11-13T01:54:03.866Z,89.50
2022-11-13T01:55:03.856Z,87.85
2022-11-13T01:56:03.836Z,88.22
2022-11-13T01:57:03.837Z,89.46
2022-11-13T01:58:03.846Z,89.46
2022-11-13T01:59:03.818Z,90.08
2022-11-13T02:00:03.812Z,88.88
2022-11-13T02:01:03.788Z,89.09
2022-11-13T02:02:03.814Z,89.81
2022-11-13T02:03:03.774Z,87.37
2022-11-13T02:04:03.806Z,89.54
2022-11-13T02:05:03.737Z,86.54
2022-11-13T02:06:03.733Z,86.02
2022-11-13T02:07:03.780Z,85.57
2022-11-13T02:08:03.702Z,86.29
2022-11-13T02:09:03.697Z,85.88
2022-11-13T02:10:03.710Z,85.47
2022-11-13T02:11:03.668Z,86.29
2022-11-13T02:12:03.679Z,87.29
2022-11-13T02:13:03.649Z,87.12
2022-11-13T02:14:03.660Z,88.06
2022-11-13T02:15:03.628Z,88.06
2022-11-13T02:16:03.654Z,86.50
2022-11-13T02:17:03.595Z,87.74
2022-11-13T02:18:03.590Z,87.23
2022-11-13T02:19:03.601Z,85.88
2022-11-13T02:20:03.598Z,87.23
2022-11-13T02:21:03.586Z,85.78
2022-11-13T02:22:03.560Z,86.67
2022-11-13T02:23:03.546Z,87.43
2022-11-13T02:24:03.535Z,87.57
2022-11-13T02:25:03.508Z,84.74
2022-11-13T02:26:03.497Z,85.05
2022-11-13T02:27:03.553Z,85.26
2022-11-13T02:28:03.487Z,87.02
2022-11-13T02:29:03.478Z,84.95
2022-11-13T02:30:03.468Z,85.26
2022-11-13T02:31:03.449Z,82.98
2022-11-13T02:32:03.496Z,83.91
2022-11-13T02:33:03.446Z,87.74
2022-11-13T02:34:03.440Z,85.16
2022-11-13T02:35:03.417Z,84.43
2022-11-13T02:36:03.388Z,83.91
2022-11-13T02:37:03.398Z,85.94
2022-11-13T02:38:03.414Z,84.22
2022-11-13T02:39:03.363Z,85.26
2022-11-13T02:40:03.338Z,84.22
2022-11-13T02:41:03.349Z,84.84
2022-11-13T02:42:03.340Z,83.50
2022-11-13T02:43:03.349Z,84.84
2022-11-13T02:44:03.314Z,84.50
2022-11-13T02:45:03.298Z,85.22
2022-11-13T02:46:03.292Z,85.63
2022-11-13T02:47:03.270Z,85.78
2022-11-13T02:48:03.303Z,85.57
2022-11-13T02:49:03.261Z,84.64
2022-11-13T02:50:03.229Z,85.32
2022-11-13T02:51:03.220Z,85.53
2022-11-13T02:52:03.221Z,85.94
2022-11-13T02:53:03.224Z,85.63
2022-11-13T02:54:03.245Z,86.05
2022-11-13T02:55:03.191Z,86.98
2022-11-13T02:56:03.188Z,87.18
2022-11-13T02:57:03.150Z,87.12
2022-11-13T02:58:03.159Z,85.84
2022-11-13T02:59:03.162Z,87.33
2022-11-13T03:00:03.180Z,85.53
2022-11-13T03:01:03.123Z,86.36
2022-11-13T03:02:03.163Z,85.11
2022-11-13T03:03:03.122Z,86.15
2022-11-13T03:04:03.070Z,85.74
2022-11-13T03:05:11.934Z,87.60
2022-11-13T03:06:04.050Z,86.77
2022-11-13T03:07:03.090Z,86.88
2022-11-13T03:08:03.033Z,88.74
2022-11-13T03:09:03.031Z,87.39
2022-11-13T03:10:03.044Z,87.29
2022-11-13T03:11:02.998Z,88.01
2022-11-13T03:12:02.996Z,88.74
2022-11-13T03:13:03.000Z,89.67
2022-11-13T03:14:02.972Z,87.81
2022-11-13T03:15:02.950Z,88.64
2022-11-13T03:16:03.180Z,88.22
2022-11-13T03:17:02.931Z,89.67
2022-11-13T03:18:02.921Z,88.01
2022-11-13T03:19:02.941Z,88.94
2022-11-13T03:20:02.903Z,90.80
2022-11-13T03:21:02.921Z,89.15
2022-11-13T03:22:02.902Z,89.87
2022-11-13T03:23:02.873Z,88.57
2022-11-13T03:24:02.881Z,89.77
2022-11-13T03:25:07.439Z,88.98
2022-11-13T03:26:03.863Z,89.19
2022-11-13T03:27:03.592Z,88.57
2022-11-13T03:28:02.811Z,89.04
2022-11-13T03:29:02.830Z,89.56
2022-11-13T03:30:02.819Z,90.29
2022-11-13T03:31:02.782Z,89.98
2022-11-13T03:32:02.826Z,90.12
2022-11-13T03:33:02.760Z,89.09
2022-11-13T03:34:02.743Z,89.81
2022-11-13T03:35:02.723Z,89.19
2022-11-13T03:36:02.736Z,89.81
2022-11-13T03:37:02.734Z,87.64
2022-11-13T03:38:02.704Z,87.23
2022-11-13T03:39:02.697Z,87.74
2022-11-13T03:40:02.736Z,88.06
2022-11-13T03:41:02.673Z,88.74
2022-11-13T03:42:02.676Z,89.46
2022-11-13T03:43:02.644Z,89.09
2022-11-13T03:44:02.636Z,89.61
2022-11-13T03:45:02.618Z,88.98
2022-11-13T03:46:02.615Z,87.64
2022-11-13T03:47:02.594Z,89.71
2022-11-13T03:48:02.616Z,87.95
2022-11-13T03:49:02.573Z,87.68
2022-11-13T03:50:02.574Z,89.50
2022-11-13T03:51:02.575Z,87.78
2022-11-13T03:52:02.545Z,87.57
2022-11-13T03:53:02.565Z,87.99
2022-11-13T03:54:02.515Z,86.96
2022-11-13T03:55:02.510Z,88.67
2022-11-13T03:56:02.495Z,88.92
2022-11-13T03:57:02.493Z,87.37
2022-11-13T03:58:02.483Z,88.16
2022-11-13T03:59:02.505Z,88.51
2022-11-13T04:00:02.455Z,88.71
2022-11-13T04:01:02.451Z,88.30
2022-11-13T04:02:02.485Z,87.68
2022-11-13T04:03:02.430Z,88.30
2022-11-13T04:04:02.452Z,88.71
2022-11-13T04:05:02.401Z,88.09
2022-11-13T04:06:02.387Z,87.68
2022-11-13T04:07:02.437Z,87.99
2022-11-13T04:08:02.364Z,87.16
2022-11-13T04:09:02.358Z,88.09
2022-11-13T04:10:02.410Z,88.71
2022-11-13T04:11:02.354Z,89.44
2022-11-13T04:12:02.324Z,88.92
2022-11-13T04:13:02.327Z,89.65
2022-11-13T04:14:02.301Z,88.20
2022-11-13T04:15:02.357Z,88.82
2022-11-13T04:16:02.302Z,88.82
2022-11-13T04:17:02.265Z,90.06
2022-11-13T04:18:02.245Z,90.99
2022-11-13T04:19:02.267Z,88.71
2022-11-13T04:20:02.225Z,88.92
2022-11-13T04:21:02.281Z,89.34
2022-11-13T04:22:02.216Z,90.37
2022-11-13T04:23:02.225Z,89.54
2022-11-13T04:24:02.191Z,91.20
2022-11-13T04:25:02.184Z,89.34
2022-11-13T04:26:02.199Z,88.92
2022-11-13T04:27:02.157Z,89.96
2022-11-13T04:28:02.167Z,88.92
2022-11-13T04:29:02.137Z,89.58
2022-11-13T04:30:02.142Z,88.65
2022-11-13T04:31:02.154Z,87.37
2022-11-13T04:32:02.406Z,87.95
2022-11-13T04:33:02.186Z,88.20
2022-11-13T04:34:02.111Z,88.24
2022-11-13T04:35:02.072Z,88.45
2022-11-13T04:36:02.052Z,88.13
2022-11-13T04:37:02.116Z,86.79
2022-11-13T04:38:02.059Z,87.82
2022-11-13T04:39:02.034Z,85.96
2022-11-13T04:40:02.079Z,87.30
2022-11-13T04:41:02.009Z,88.34
2022-11-13T04:42:02.026Z,87.51
2022-11-13T04:43:02.012Z,87.51
2022-11-13T04:44:01.961Z,86.79
2022-11-13T04:45:01.961Z,86.75
2022-11-13T04:46:01.966Z,86.54
2022-11-13T04:47:01.956Z,87.88
2022-11-13T04:48:01.947Z,87.47
2022-11-13T04:49:01.917Z,86.47
2022-11-13T04:50:01.902Z,88.92
2022-11-13T04:51:01.888Z,86.33
2022-11-13T04:52:01.879Z,87.27
2022-11-13T04:53:01.858Z,87.88
2022-11-13T04:54:01.881Z,88.82
2022-11-13T04:55:01.851Z,88.82
2022-11-13T04:56:01.838Z,87.68
2022-11-13T04:57:01.821Z,88.92
2022-11-13T04:58:01.832Z,87.99
2022-11-13T04:59:01.839Z,88.61
2022-11-13T05:00:01.802Z,87.30
2022-11-13T05:01:01.779Z,88.82
2022-11-13T05:02:01.831Z,87.99
2022-11-13T05:03:01.758Z,87.99
2022-11-13T05:04:01.750Z,87.06
2022-11-13T05:05:05.005Z,86.13
2022-11-13T05:06:01.738Z,84.68
2022-11-13T05:07:01.768Z,87.27
2022-11-13T05:08:01.701Z,87.16
2022-11-13T05:09:01.714Z,85.71
2022-11-13T05:10:01.734Z,87.16
2022-11-13T05:11:01.673Z,86.33
2022-11-13T05:12:01.659Z,87.12
2022-11-13T05:13:01.648Z,85.92
2022-11-13T05:14:03.561Z,88.46
2022-11-13T05:15:01.639Z,87.23
2022-11-13T05:16:01.660Z,86.50
2022-11-13T05:17:01.615Z,86.02
2022-11-13T05:18:01.597Z,85.92
2022-11-13T05:19:01.579Z,85.61
2022-11-13T05:20:01.571Z,85.61
2022-11-13T05:21:01.589Z,84.37
2022-11-13T05:22:01.578Z,84.37
2022-11-13T05:23:01.559Z,85.92
2022-11-13T05:24:01.529Z,84.88
2022-11-13T05:25:01.509Z,85.40
2022-11-13T05:26:01.510Z,86.09
2022-11-13T05:27:01.511Z,87.02
2022-11-13T05:28:01.489Z,86.29
2022-11-13T05:29:01.502Z,86.44
2022-11-13T05:30:01.474Z,87.74
2022-11-13T05:31:01.531Z,87.12
2022-11-13T05:32:01.520Z,86.33
2022-11-13T05:33:01.461Z,86.02
2022-11-13T05:34:05.691Z,84.27
2022-11-13T05:35:01.425Z,84.37
2022-11-13T05:36:01.383Z,84.74
2022-11-13T05:37:01.371Z,86.19
2022-11-13T05:38:01.371Z,85.68
2022-11-13T05:39:01.361Z,87.06
2022-11-13T05:40:01.341Z,84.37
2022-11-13T05:41:01.322Z,84.68
2022-11-13T05:42:01.329Z,85.09
2022-11-13T05:43:01.331Z,85.09
2022-11-13T05:44:01.436Z,86.50
2022-11-13T05:45:01.321Z,87.85
2022-11-13T05:46:01.281Z,87.06
2022-11-13T05:47:01.262Z,86.23
2022-11-13T05:48:01.251Z,86.02
2022-11-13T05:49:01.268Z,86.33
2022-11-13T05:50:01.241Z,86.54
2022-11-13T05:51:01.220Z,86.96
2022-11-13T05:52:01.214Z,86.27
2022-11-13T05:53:01.191Z,86.58
2022-11-13T05:54:01.209Z,85.13
2022-11-13T05:55:01.189Z,85.24
2022-11-13T05:56:01.172Z,87.51
2022-11-13T05:57:01.168Z,86.37
2022-11-13T05:58:01.171Z,87.68
2022-11-13T05:59:01.154Z,88.09
2022-11-13T06:00:01.171Z,88.30
2022-11-13T06:01:01.120Z,88.09
2022-11-13T06:02:01.216Z,89.44
2022-11-13T06:03:01.092Z,90.99
2022-11-13T06:04:01.094Z,87.88
2022-11-13T06:05:01.090Z,88.09
2022-11-13T06:06:01.056Z,89.65
2022-11-13T06:07:01.091Z,87.88
2022-11-13T06:08:01.033Z,88.34
2022-11-13T06:09:01.012Z,91.20
2022-11-13T06:10:01.080Z,89.38
2022-11-13T06:11:01.013Z,88.45
2022-11-13T06:12:00.985Z,91.35
2022-11-13T06:13:00.970Z,88.28
2022-11-13T06:14:00.964Z,89.38
2022-11-13T06:15:00.941Z,88.34
2022-11-13T06:16:00.974Z,88.18
2022-11-13T06:17:00.928Z,89.48
2022-11-13T06:18:00.931Z,90.93
2022-11-13T06:19:00.901Z,89.83
2022-11-13T06:20:00.937Z,88.63
2022-11-13T06:21:00.884Z,89.67
2022-11-13T06:22:00.903Z,88.63
2022-11-13T06:23:00.863Z,88.21
2022-11-13T06:24:00.848Z,89.11
2022-11-13T06:25:00.834Z,91.85
2022-11-13T06:26:00.836Z,89.09
2022-11-13T06:27:00.851Z,90.60
2022-11-13T06:28:00.805Z,89.36
2022-11-13T06:29:00.801Z,91.43
2022-11-13T06:30:00.816Z,91.12
2022-11-13T06:31:00.774Z,89.87
2022-11-13T06:32:00.773Z,89.67
2022-11-13T06:33:00.793Z,93.19
2022-11-13T06:34:00.745Z,89.87
2022-11-13T06:35:00.785Z,90.02
2022-11-13T06:36:00.717Z,89.29
2022-11-13T06:37:01.878Z,90.85
2022-11-13T06:38:00.691Z,89.29
2022-11-13T06:39:00.810Z,89.25
2022-11-13T06:40:00.691Z,90.19
2022-11-13T06:41:00.655Z,91.74
2022-11-13T06:42:00.655Z,88.67
2022-11-13T06:43:00.647Z,89.56
2022-11-13T06:44:03.032Z,92.05
2022-11-13T06:45:00.660Z,89.36
2022-11-13T06:46:00.616Z,89.04
2022-11-13T06:47:00.595Z,89.25
2022-11-13T06:48:00.608Z,89.52
2022-11-13T06:49:00.579Z,90.35
2022-11-13T06:50:00.567Z,92.43
2022-11-13T06:51:00.566Z,90.70
2022-11-13T06:52:00.551Z,90.39
2022-11-13T06:53:00.527Z,88.63
2022-11-13T06:54:00.534Z,88.39
2022-11-13T06:55:00.522Z,89.83
2022-11-13T06:56:00.534Z,89.73
2022-11-13T06:57:00.486Z,88.59
2022-11-13T06:58:00.484Z,89.62
2022-11-13T06:59:00.517Z,88.65
2022-11-13T07:00:00.469Z,89.58
2022-11-13T07:01:00.495Z,89.52
2022-11-13T07:02:00.469Z,88.18
2022-11-13T07:03:00.432Z,87.35
2022-11-13T07:04:00.429Z,86.99
2022-11-13T07:05:00.406Z,86.68
2022-11-13T07:06:00.401Z,88.24
2022-11-13T07:07:00.506Z,87.99
2022-11-13T07:08:00.407Z,88.45
2022-11-13T07:09:00.360Z,87.93
2022-11-13T07:10:00.349Z,87.88
2022-11-13T07:11:00.336Z,88.71
2022-11-13T07:12:00.319Z,90.58
2022-11-13T07:13:00.496Z,89.65
2022-11-13T07:14:00.301Z,90.89
2022-11-13T07:15:00.300Z,88.96
2022-11-13T07:16:05.829Z,89.44
2022-11-13T07:17:10.414Z,89.54
2022-11-13T07:18:01.300Z,89.65
2022-11-13T07:19:00.270Z,89.44
2022-11-13T07:20:00.250Z,90.12
2022-11-13T07:21:00.250Z,90.47
2022-11-13T07:22:00.229Z,90.47
2022-11-13T07:23:00.212Z,89.07
2022-11-13T07:24:00.216Z,88.71
2022-11-13T07:25:00.219Z,88.24
2022-11-13T07:26:00.170Z,88.71
2022-11-13T07:27:00.660Z,88.20
2022-11-13T07:28:01.179Z,88.82
2022-11-13T07:29:00.139Z,88.09
2022-11-13T07:30:03.532Z,88.82
2022-11-13T07:31:00.163Z,89.29
2022-11-13T07:32:00.110Z,90.12
2022-11-13T07:33:00.100Z,88.78
2022-11-13T07:34:00.101Z,89.50
2022-11-13T07:35:00.089Z,88.57
2022-11-13T07:36:00.095Z,88.46
2022-11-13T07:37:00.089Z,88.67
2022-11-13T07:38:00.051Z,87.33
2022-11-13T07:39:00.480Z,87.64
2022-11-13T07:40:00.024Z,87.91
2022-11-13T07:41:00.014Z,88.22
2022-11-13T07:42:00.050Z,89.67
2022-11-13T07:42:59.993Z,90.91
2022-11-13T07:43:59.971Z,88.67
2022-11-13T07:44:59.976Z,89.29
2022-11-13T07:45:59.960Z,88.78
2022-11-13T07:46:59.968Z,88.26
2022-11-13T07:47:59.966Z,88.78
2022-11-13T07:48:59.924Z,87.70
2022-11-13T07:50:05.595Z,88.80
2022-11-13T07:51:00.914Z,90.66
2022-11-13T07:51:59.884Z,91.17
2022-11-13T07:52:59.880Z,89.52
2022-11-13T07:53:59.887Z,90.66
2022-11-13T07:54:59.860Z,90.56
2022-11-13T07:55:59.858Z,90.56
2022-11-13T07:56:59.835Z,89.73
2022-11-13T07:57:59.823Z,90.35
2022-11-13T07:58:59.809Z,89.42
2022-11-13T07:59:59.866Z,88.18
2022-11-13T08:00:59.808Z,88.14
2022-11-13T08:01:59.773Z,88.14
2022-11-13T08:02:59.761Z,88.04
2022-11-13T08:03:59.755Z,88.34
2022-11-13T08:04:59.739Z,89.69
2022-11-13T08:05:59.743Z,88.41
2022-11-13T08:06:59.754Z,90.47
2022-11-13T08:07:59.704Z,88.96
2022-11-13T08:08:59.858Z,88.39
2022-11-13T08:10:01.345Z,90.20
2022-11-13T08:11:00.087Z,87.41
2022-11-13T08:11:59.666Z,89.34
2022-11-13T08:12:59.638Z,88.45
2022-11-13T08:13:59.635Z,87.10
2022-11-13T08:14:59.633Z,86.49
2022-11-13T08:15:59.607Z,86.79
2022-11-13T08:16:59.613Z,86.86
2022-11-13T08:17:59.585Z,89.50
2022-11-13T08:18:59.576Z,88.71
2022-11-13T08:19:59.574Z,88.26
2022-11-13T08:20:59.576Z,90.28
2022-11-13T08:21:59.569Z,89.25
2022-11-13T08:22:59.537Z,90.08
2022-11-13T08:23:59.526Z,90.28
2022-11-13T08:24:59.511Z,88.95
2022-11-13T08:25:59.507Z,89.36
2022-11-13T08:26:59.496Z,89.67
2022-11-13T08:27:59.518Z,89.11
2022-11-13T08:28:59.457Z,89.11
2022-11-13T08:29:59.450Z,89.73
2022-11-13T08:30:59.429Z,89.83
2022-11-13T08:31:59.424Z,90.14
2022-11-13T08:32:59.460Z,89.79
2022-11-13T08:33:59.410Z,89.07
2022-11-13T08:34:59.396Z,90.20
2022-11-13T08:35:59.378Z,90.10
2022-11-13T08:36:59.366Z,87.63
2022-11-13T08:37:59.379Z,88.41
2022-11-13T08:38:59.398Z,91.19
2022-11-13T08:39:59.344Z,89.44
2022-11-13T08:41:01.217Z,88.47
2022-11-13T08:41:59.319Z,89.19
2022-11-13T08:42:59.305Z,88.53
2022-11-13T08:43:59.320Z,90.28
2022-11-13T08:44:59.335Z,88.99
2022-11-13T08:45:59.278Z,89.52
2022-11-13T08:46:59.275Z,89.77
2022-11-13T08:47:59.249Z,88.70
2022-11-13T08:48:59.252Z,90.45
2022-11-13T08:49:59.247Z,91.78
2022-11-13T08:50:59.241Z,89.94
2022-11-13T08:51:59.208Z,90.66
2022-11-13T08:52:59.224Z,90.14
2022-11-13T08:53:59.189Z,90.14
2022-11-13T08:54:59.168Z,89.89
2022-11-13T08:55:59.149Z,91.64
2022-11-13T08:57:03.267Z,90.61
2022-11-13T08:58:00.162Z,90.16
2022-11-13T08:58:59.164Z,90.47
2022-11-13T08:59:59.115Z,90.83
2022-11-13T09:00:59.112Z,92.17
2022-11-13T09:01:59.216Z,90.42
2022-11-13T09:02:59.080Z,91.86
2022-11-13T09:03:59.105Z,92.17
2022-11-13T09:04:59.068Z,90.57
2022-11-13T09:05:59.050Z,92.48
2022-11-13T09:06:59.085Z,91.25
2022-11-13T09:07:59.043Z,92.17
2022-11-13T09:08:59.019Z,91.76
2022-11-13T09:09:59.001Z,92.89
2022-11-13T09:10:58.982Z,91.86
2022-11-13T09:11:58.986Z,92.44
2022-11-13T09:12:58.985Z,93.67
2022-11-13T09:13:59.109Z,93.92
2022-11-13T09:14:58.931Z,92.69
2022-11-13T09:15:58.930Z,93.51
2022-11-13T09:16:58.987Z,93.30
2022-11-13T09:17:58.901Z,93.20
2022-11-13T09:18:58.902Z,93.20
2022-11-13T09:20:03.686Z,93.40
2022-11-13T09:20:59.879Z,93.46
2022-11-13T09:21:58.861Z,93.82
2022-11-13T09:22:58.854Z,93.82
2022-11-13T09:23:58.835Z,93.14
2022-11-13T09:24:58.869Z,92.52
2022-11-13T09:25:58.840Z,92.27
2022-11-13T09:26:59.582Z,92.74
2022-11-13T09:27:58.783Z,93.51
2022-11-13T09:28:58.787Z,93.10
2022-11-13T09:29:58.779Z,93.77
2022-11-13T09:30:58.793Z,93.67
2022-11-13T09:31:58.752Z,93.27
2022-11-13T09:32:58.752Z,94.10
2022-11-13T09:33:58.723Z,94.14
2022-11-13T09:34:58.706Z,93.83
2022-11-13T09:35:58.716Z,93.95
2022-11-13T09:36:58.723Z,93.29
2022-11-13T09:37:58.682Z,94.11
2022-11-13T09:38:58.664Z,94.62
2022-11-13T09:39:58.655Z,94.15
2022-11-13T09:40:58.655Z,94.15
2022-11-13T09:41:58.928Z,94.58
2022-11-13T09:42:58.657Z,94.27
2022-11-13T09:44:00.130Z,95.36
2022-11-13T09:44:58.615Z,95.56
2022-11-13T09:45:58.598Z,97.14
2022-11-13T09:46:58.595Z,95.91
2022-11-13T09:47:58.596Z,95.76
2022-11-13T09:48:58.556Z,95.81
2022-11-13T09:49:58.534Z,95.95
2022-11-13T09:50:58.539Z,95.24
2022-11-13T09:52:00.664Z,94.99
2022-11-13T09:52:59.545Z,95.61
2022-11-13T09:53:58.528Z,95.56
2022-11-13T09:54:58.510Z,97.40
2022-11-13T09:55:58.475Z,96.23
2022-11-13T09:56:58.465Z,96.23
2022-11-13T09:57:58.457Z,96.59
2022-11-13T09:58:58.436Z,96.17
2022-11-13T09:59:58.457Z,96.69
2022-11-13T10:00:58.568Z,96.28
2022-11-13T10:01:58.397Z,95.97
2022-11-13T10:02:58.398Z,96.95
2022-11-13T10:04:02.452Z,96.59
2022-11-13T10:04:59.627Z,97.11
2022-11-13T10:05:58.357Z,97.11
2022-11-13T10:06:58.392Z,97.21
2022-11-13T10:07:58.349Z,96.91
2022-11-13T10:08:58.343Z,97.00
2022-11-13T10:09:58.309Z,97.67
2022-11-13T10:10:58.342Z,98.19
2022-11-13T10:11:58.288Z,98.08
2022-11-13T10:12:58.300Z,98.35
2022-11-13T10:13:58.277Z,98.65
2022-11-13T10:14:58.259Z,99.06
2022-11-13T10:15:58.240Z,98.90
2022-11-13T10:16:58.299Z,98.70
2022-11-13T10:17:58.252Z,98.75
2022-11-13T10:18:58.218Z,99.22
2022-11-13T10:19:58.207Z,98.86
2022-11-13T10:20:58.206Z,98.75
2022-11-13T10:22:07.674Z,98.50
2022-11-13T10:22:59.180Z,99.06
2022-11-13T10:23:58.202Z,99.27
2022-11-13T10:24:58.147Z,98.90
2022-11-13T10:25:58.141Z,98.74
2022-11-13T10:26:58.139Z,98.29
2022-11-13T10:27:58.269Z,99.16
2022-11-13T10:28:58.170Z,98.91
2022-11-13T10:29:58.115Z,99.32
2022-11-13T10:30:58.073Z,98.65
2022-11-13T10:31:58.097Z,99.32
2022-11-13T10:32:58.059Z,99.02
2022-11-13T10:33:58.061Z,99.27
2022-11-13T10:34:58.045Z,98.97
2022-11-13T10:35:58.035Z,98.97
2022-11-13T10:36:58.014Z,98.81
2022-11-13T10:37:59.285Z,99.18
2022-11-13T10:38:58.046Z,99.13
2022-11-13T10:39:58.088Z,99.07
2022-11-13T10:40:57.964Z,99.58
2022-11-13T10:41:57.952Z,98.91
2022-11-13T10:42:57.973Z,99.16
2022-11-13T10:43:57.956Z,99.18
2022-11-13T10:44:57.985Z,99.27
2022-11-13T10:45:57.902Z,99.02
2022-11-13T10:46:57.892Z,99.37
2022-11-13T10:48:04.125Z,99.43
2022-11-13T10:48:58.863Z,99.18
2022-11-13T10:49:57.853Z,99.02
2022-11-13T10:50:57.876Z,99.27
2022-11-13T10:51:57.835Z,99.23
2022-11-13T10:52:57.850Z,99.08
2022-11-13T10:53:57.818Z,99.08
2022-11-13T10:54:57.795Z,98.88
2022-11-13T10:55:57.807Z,98.98
2022-11-13T10:56:57.804Z,98.88
2022-11-13T10:57:57.765Z,99.08
2022-11-13T10:58:57.747Z,98.63
2022-11-13T10:59:57.736Z,99.04
2022-11-13T11:00:57.788Z,98.83
2022-11-13T11:01:57.755Z,98.83
2022-11-13T11:02:57.738Z,98.36
2022-11-13T11:03:57.706Z,98.83
2022-11-13T11:04:57.697Z,98.93
2022-11-13T11:05:57.664Z,98.68
2022-11-13T11:07:18.955Z,98.43
2022-11-13T11:07:58.733Z,98.68
2022-11-13T11:08:57.626Z,98.83
2022-11-13T11:09:57.636Z,98.68
2022-11-13T11:10:57.626Z,98.61
2022-11-13T11:11:57.623Z,98.97
2022-11-13T11:12:57.606Z,99.02
2022-11-13T11:13:57.576Z,98.77
2022-11-13T11:14:57.579Z,98.77
2022-11-13T11:15:57.568Z,98.73
2022-11-13T11:16:57.548Z,98.43
2022-11-13T11:17:57.548Z,97.56
2022-11-13T11:18:57.629Z,97.25
2022-11-13T11:19:57.561Z,97.36
2022-11-13T11:20:57.498Z,97.77
2022-11-13T11:21:57.491Z,97.62
2022-11-13T11:22:57.468Z,97.62
2022-11-13T11:23:57.502Z,97.31
2022-11-13T11:24:58.681Z,97.00
2022-11-13T11:25:57.530Z,97.52
2022-11-13T11:26:57.468Z,97.57
2022-11-13T11:27:57.436Z,96.80
2022-11-13T11:28:57.401Z,96.96
2022-11-13T11:29:57.442Z,97.27
2022-11-13T11:30:57.389Z,97.27
2022-11-13T11:31:57.379Z,97.02
2022-11-13T11:32:57.380Z,97.02
2022-11-13T11:33:57.373Z,96.56
2022-11-13T11:34:59.267Z,97.58
2022-11-13T11:35:57.354Z,97.12
2022-11-13T11:36:57.396Z,97.17
2022-11-13T11:37:57.315Z,96.51
2022-11-13T11:38:57.313Z,96.77
2022-11-13T11:39:57.294Z,95.95
2022-11-13T11:40:57.501Z,95.30
2022-11-13T11:41:57.355Z,95.34
2022-11-13T11:42:57.250Z,95.85
2022-11-13T11:43:57.396Z,96.26
2022-11-13T11:44:57.261Z,95.14
2022-11-13T11:45:57.326Z,93.62
2022-11-13T11:46:57.400Z,93.51
2022-11-13T11:47:57.244Z,94.12
2022-11-13T11:48:57.205Z,94.43
2022-11-13T11:49:57.331Z,94.93
2022-11-13T11:50:57.322Z,95.04
2022-11-13T11:51:57.319Z,94.12
2022-11-13T11:52:57.598Z,94.02
2022-11-13T11:53:57.238Z,95.24
2022-11-13T11:54:57.201Z,94.57
2022-11-13T11:55:57.123Z,95.24
2022-11-13T11:56:57.172Z,95.04
2022-11-13T11:57:57.212Z,94.53
2022-11-13T11:58:57.106Z,93.92
2022-11-13T11:59:57.221Z,94.32
2022-11-13T12:00:57.115Z,94.59
2022-11-13T12:01:57.054Z,93.16
2022-11-13T12:02:57.045Z,94.24
2022-11-13T12:03:57.055Z,93.22
2022-11-13T12:04:57.028Z,93.16
2022-11-13T12:05:56.985Z,92.61
2022-11-13T12:06:57.095Z,92.35
2022-11-13T12:07:56.966Z,92.96
2022-11-13T12:08:56.987Z,93.87
2022-11-13T12:09:56.935Z,93.83
2022-11-13T12:10:56.975Z,94.04
2022-11-13T12:11:57.093Z,92.51
2022-11-13T12:12:57.070Z,90.88
2022-11-13T12:13:57.066Z,91.09
2022-11-13T12:14:56.977Z,89.76
2022-11-13T12:15:56.952Z,91.23
2022-11-13T12:16:57.335Z,91.39
2022-11-13T12:17:56.982Z,90.17
2022-11-13T12:18:57.122Z,89.76
2022-11-13T12:19:57.254Z,88.10
2022-11-13T12:20:57.255Z,87.89
2022-11-13T12:21:56.869Z,88.20
2022-11-13T12:22:56.836Z,89.22
2022-11-13T12:23:56.778Z,88.40
2022-11-13T12:24:56.767Z,88.46
2022-11-13T12:25:56.820Z,87.04
2022-11-13T12:26:56.764Z,87.95
2022-11-13T12:27:56.750Z,88.26
2022-11-13T12:28:56.763Z,89.13
2022-11-13T12:29:56.753Z,88.82
2022-11-13T12:30:56.733Z,89.64
2022-11-13T12:31:56.720Z,90.45
2022-11-13T12:32:56.672Z,90.96
2022-11-13T12:34:01.031Z,91.36
2022-11-13T12:34:56.662Z,91.73
2022-11-13T12:35:56.650Z,92.24
2022-11-13T12:36:56.650Z,91.73
2022-11-13T12:37:56.642Z,91.56
2022-11-13T12:38:56.602Z,93.19
2022-11-13T12:39:56.625Z,92.79
2022-11-13T12:40:56.623Z,92.74
2022-11-13T12:41:56.594Z,92.54
2022-11-13T12:42:56.612Z,93.64
2022-11-13T12:43:56.561Z,94.51
2022-11-13T12:44:56.543Z,94.76
2022-11-13T12:45:56.540Z,95.37
2022-11-13T12:46:56.561Z,93.86
2022-11-13T12:47:56.519Z,92.44
2022-11-13T12:48:56.575Z,91.99
2022-11-13T12:49:56.512Z,92.40
2022-11-13T12:50:56.474Z,92.64
2022-11-13T12:51:56.454Z,93.35